Time;durP1;ratioP1;P1;durP2;ratioP2;P2;SDS_P1;SDS_P2;PMS_P1;PMS_P2;Temp;Humidity;BMP_temperature;BMP_pressure;BME280_temperature;BME280_humidity;BME280_pressure;Samples;Min_cycle;Max_cycle;Signal;HPM_P1;HPM_P2
2023/01/25 04:01:42;;;;;;;12.73;5.83;;;2.00;99.90;;;;;;5540735;23;20515;-75
2023/01/25 04:04:38;;;;;;;13.57;7.30;;;2.00;99.90;;;;;;4963036;28;20489;-76
2023/01/25 04:10:34;;;;;;;8.93;5.80;;;2.10;99.90;;;;;;4898026;28;21220;-76
2023/01/25 04:16:42;;;;;;;13.03;7.77;;;2.10;99.90;;;;;;4838982;29;21422;-76
2023/01/25 04:19:16;;;;;;;9.13;5.77;;;2.10;99.90;;;;;;4871196;29;20470;-78
2023/01/25 04:21:53;;;;;;;16.00;8.50;;;2.30;99.90;;;;;;4868397;29;21091;-75
2023/01/25 04:24:32;;;;;;;9.70;6.70;;;2.30;99.90;;;;;;4862250;29;20557;-76
2023/01/25 04:31:08;;;;;;;;;;;;;;;;;;;;;
2023/01/25 04:33:40;;;;;;;5.77;4.53;;;2.10;99.90;;;;;;4881478;29;20436;-74
2023/01/25 04:44:27;;;;;;;;;;;;;;;;;;;;;
2023/01/25 04:54:12;;;;;;;17.63;10.07;;;1.90;99.90;;;;;;4794260;29;20434;-75
2023/01/25 05:19:56;;;;;;;19.70;8.10;;;1.60;99.90;;;;;;4723876;30;20466;-78
2023/01/25 05:32:19;;;;;;;11.97;6.97;;;1.70;99.90;;;;;;4739644;30;20532;-77
2023/01/25 05:35:42;;;;;;;9.20;5.87;;;1.80;99.90;;;;;;4844414;29;20551;-78
2023/01/25 05:42:04;;;;;;;14.30;6.73;;;1.70;99.90;;;;;;4856359;29;20789;-75
2023/01/25 05:55:59;;;;;;;13.40;6.60;;;1.90;99.90;;;;;;4838237;29;21028;-78
2023/01/25 06:02:23;;;;;;;10.07;8.70;;;1.90;99.90;;;;;;4819811;29;20910;-74
2023/01/25 06:05:34;;;;;;;14.07;7.43;;;1.90;99.90;;;;;;4849858;29;22692;-76
2023/01/25 06:14:56;;;;;;;16.77;9.10;;;2.10;99.90;;;;;;4735120;30;20486;-77
2023/01/25 06:18:12;;;;;;;16.33;6.80;;;2.20;99.90;;;;;;4771690;29;20585;-74
2023/01/25 06:20:39;;;;;;;13.20;7.97;;;2.20;99.90;;;;;;4841386;29;20448;-72
2023/01/25 06:23:38;;;;;;;15.20;8.93;;;2.10;99.90;;;;;;4861744;29;21154;-77
2023/01/25 06:33:46;;;;;;;11.93;8.00;;;1.80;99.90;;;;;;4809587;29;20464;-76
2023/01/25 06:39:52;;;;;;;10.10;6.27;;;1.50;99.90;;;;;;4757008;30;20448;-75
2023/01/25 06:43:07;;;;;;;9.97;6.00;;;1.70;99.90;;;;;;4775433;30;21002;-75
2023/01/25 07:04:52;;;;;;;16.70;8.20;;;1.50;99.90;;;;;;4753164;30;20462;-77
2023/01/25 07:14:54;;;;;;;21.23;8.23;;;1.50;99.90;;;;;;4720685;30;20469;-77
2023/01/25 07:44:22;;;;;;;14.40;7.23;;;1.40;99.90;;;;;;4926404;27;4700498;-75
2023/01/25 07:46:53;;;;;;;11.20;6.23;;;1.60;99.90;;;;;;5092200;28;20221;-77
2023/01/25 07:49:26;;;;;;;15.70;7.97;;;1.60;99.90;;;;;;5087425;28;20461;-79
2023/01/25 07:52:00;;;;;;;18.17;9.73;;;1.60;99.90;;;;;;5092770;28;20481;-77
2023/01/25 08:00:44;;;;;;;16.13;9.90;;;1.70;99.90;;;;;;5088437;28;20475;-80
2023/01/25 08:17:32;;;;;;;13.10;6.63;;;1.80;99.90;;;;;;4861361;29;20473;-77
2023/01/25 08:30:38;;;;;;;13.60;7.33;;;1.70;99.90;;;;;;4877019;29;20451;-78
2023/01/25 08:33:11;;;;;;;14.47;7.97;;;1.80;99.90;;;;;;4821511;29;20440;-75
2023/01/25 08:35:38;;;;;;;11.83;6.93;;;1.50;99.90;;;;;;4823712;29;20547;-77
2023/01/25 08:38:44;;;;;;;12.57;6.87;;;1.40;99.90;;;;;;4821309;29;20580;-78
2023/01/25 08:41:39;;;;;;;9.93;6.73;;;1.40;99.90;;;;;;4816077;29;20502;-77
2023/01/25 08:44:49;;;;;;;18.70;7.27;;;1.40;99.90;;;;;;4813489;29;20478;-76
2023/01/25 08:50:36;;;;;;;22.80;9.73;;;1.50;99.90;;;;;;4897291;29;20452;-75
2023/01/25 08:56:12;;;;;;;13.37;8.00;;;1.50;99.90;;;;;;4947458;29;20436;-78
2023/01/25 08:59:35;;;;;;;17.60;9.27;;;1.60;99.90;;;;;;4940580;29;20470;-77
2023/01/25 09:11:44;;;;;;;18.93;8.70;;;1.50;99.90;;;;;;4918074;29;20462;-78
2023/01/25 09:14:51;;;;;;;21.87;11.50;;;1.50;99.90;;;;;;4944237;29;20525;-76
2023/01/25 09:21:11;;;;;;;21.50;6.77;;;1.60;99.90;;;;;;4911418;29;20434;-76
2023/01/25 09:27:44;;;;;;;18.13;8.07;;;1.80;99.90;;;;;;4937305;29;20463;-79
2023/01/25 09:44:02;;;;;;;21.90;11.13;;;1.70;99.90;;;;;;4904550;29;20484;-78
2023/01/25 09:50:11;;;;;;;10.10;4.23;;;2.00;99.90;;;;;;4986462;28;20533;-78
2023/01/25 09:53:32;;;;;;;16.67;8.83;;;2.00;99.90;;;;;;4992808;28;20481;-74
2023/01/25 09:56:11;;;;;;;13.33;7.87;;;2.00;99.90;;;;;;5040945;28;20733;-78
2023/01/25 10:02:35;;;;;;;13.00;9.83;;;1.70;99.90;;;;;;5034208;28;20670;-80
2023/01/25 10:05:36;;;;;;;13.17;7.40;;;1.90;99.90;;;;;;5013017;28;20466;-77
2023/01/25 10:08:08;;;;;;;15.23;8.20;;;2.00;99.90;;;;;;5061563;28;20471;-76
2023/01/25 10:10:41;;;;;;;19.53;10.47;;;2.00;99.90;;;;;;5036844;28;20462;-74
2023/01/25 10:13:30;;;;;;;19.80;8.47;;;1.90;99.90;;;;;;5079265;28;20500;-77
2023/01/25 10:16:07;;;;;;;18.23;11.20;;;1.90;99.90;;;;;;5077861;28;20735;-74
2023/01/25 10:21:41;;;;;;;21.20;7.60;;;2.00;99.90;;;;;;5076780;28;20480;-72
2023/01/25 10:24:30;;;;;;;21.40;11.30;;;2.00;99.90;;;;;;5042212;28;20479;-76
2023/01/25 10:27:50;;;;;;;;;;;;;;;;;;;;;
2023/01/25 10:34:05;;;;;;;15.90;9.50;;;2.00;99.90;;;;;;5050587;28;20472;-78
2023/01/25 10:40:53;;;;;;;15.43;7.57;;;1.80;99.90;;;;;;5019803;28;20437;-78
2023/01/25 10:44:20;;;;;;;20.80;11.50;;;1.60;99.90;;;;;;5018980;28;20510;-80
2023/01/25 10:47:35;;;;;;;8.60;5.23;;;1.70;99.90;;;;;;5055439;28;20471;-76
2023/01/25 10:54:22;;;;;;;16.07;8.67;;;1.50;99.90;;;;;;4980251;28;20472;-76
2023/01/25 11:07:39;;;;;;;31.80;11.70;;;1.80;99.90;;;;;;4833823;29;21026;-77
2023/01/25 11:23:40;;;;;;;15.33;10.70;;;2.00;99.90;;;;;;4849787;29;20538;-79
2023/01/25 11:26:25;;;;;;;25.20;11.10;;;2.00;99.90;;;;;;4991590;28;20519;-77
2023/01/25 11:36:06;;;;;;;24.90;10.90;;;2.10;99.90;;;;;;4937834;29;20477;-77
2023/01/25 11:39:22;;;;;;;13.90;8.03;;;1.80;99.90;;;;;;4907089;29;20431;-75
2023/01/25 11:42:37;;;;;;;17.27;8.77;;;1.80;99.90;;;;;;4940588;29;20542;-78
2023/01/25 11:46:01;;;;;;;26.40;11.50;;;1.80;99.90;;;;;;5001973;28;20488;-75
2023/01/25 11:49:24;;;;;;;30.73;13.07;;;1.80;99.90;;;;;;4953279;28;20442;-78
2023/01/25 11:52:04;;;;;;;32.90;11.20;;;2.00;99.90;;;;;;4960323;28;21003;-78
2023/01/25 11:58:45;;;;;;;19.33;10.00;;;2.00;99.90;;;;;;4999031;28;20610;-78
2023/01/25 12:01:36;;;;;;;22.10;9.33;;;2.00;99.90;;;;;;4953001;28;20549;-82
2023/01/25 12:05:02;;;;;;;26.40;9.60;;;2.10;99.90;;;;;;5014682;28;20824;-78
2023/01/25 12:07:42;;;;;;;22.77;11.77;;;2.10;99.90;;;;;;4922632;29;20426;-76
2023/01/25 12:10:24;;;;;;;34.30;10.00;;;1.80;99.90;;;;;;5073564;28;20899;-77
2023/01/25 12:13:02;;;;;;;26.00;11.17;;;2.00;99.90;;;;;;5055971;28;20530;-79
2023/01/25 12:19:09;;;;;;;24.87;11.83;;;2.00;99.90;;;;;;5086650;28;20525;-78
2023/01/25 12:22:18;;;;;;;35.13;13.20;;;2.00;99.90;;;;;;5031019;28;20483;-76
2023/01/25 12:25:02;;;;;;;22.60;9.90;;;2.10;99.90;;;;;;5072545;28;20471;-76
2023/01/25 12:28:05;;;;;;;28.50;10.57;;;2.10;99.90;;;;;;5073008;28;20465;-77
2023/01/25 12:31:37;;;;;;;16.37;10.37;;;2.10;99.90;;;;;;5078604;28;20508;-75
2023/01/25 12:34:27;;;;;;;25.27;14.33;;;2.10;99.90;;;;;;5071936;28;20986;-76
2023/01/25 12:37:22;;;;;;;36.27;16.13;;;2.20;99.90;;;;;;5083185;28;20469;-78
2023/01/25 12:40:17;;;;;;;20.10;10.20;;;2.10;99.90;;;;;;5005971;28;20982;-78
2023/01/25 12:46:16;;;;;;;24.70;11.80;;;2.10;99.90;;;;;;4983264;28;20516;-74
2023/01/25 12:52:30;;;;;;;24.67;8.90;;;2.00;99.90;;;;;;4928500;28;20465;-81
2023/01/25 12:59:03;;;;;;;24.93;12.30;;;2.10;99.90;;;;;;4931561;29;20498;-76
2023/01/25 13:01:37;;;;;;;18.43;9.17;;;2.00;99.90;;;;;;4944441;29;20522;-78
2023/01/25 13:07:53;;;;;;;18.53;8.67;;;2.00;99.90;;;;;;4942739;29;20427;-77
2023/01/25 13:10:52;;;;;;;20.30;11.83;;;2.20;99.90;;;;;;4942591;29;20461;-78
2023/01/25 13:27:25;;;;;;;22.33;8.97;;;2.00;99.90;;;;;;4786002;29;20440;-77
2023/01/25 13:30:37;;;;;;;;;;;;;;;;;;;;;
2023/01/25 13:33:34;;;;;;;25.00;9.53;;;2.00;99.90;;;;;;4929811;29;20491;-78
2023/01/25 13:36:44;;;;;;;12.37;6.60;;;1.90;99.90;;;;;;4948835;28;20479;-75
2023/01/25 13:40:05;;;;;;;21.73;8.60;;;1.90;99.90;;;;;;4924327;29;20439;-75
2023/01/25 13:43:05;;;;;;;15.87;7.53;;;2.00;99.90;;;;;;4941377;29;20481;-76
2023/01/25 13:46:05;;;;;;;13.47;8.80;;;2.10;99.90;;;;;;4944217;29;20439;-77
2023/01/25 13:48:57;;;;;;;17.63;9.67;;;2.20;99.90;;;;;;4932286;29;20484;-75
2023/01/25 13:51:31;;;;;;;19.03;10.60;;;2.20;99.90;;;;;;4920929;29;20554;-77
2023/01/25 14:00:57;;;;;;;18.23;8.60;;;2.20;99.90;;;;;;4982481;28;20534;-76
2023/01/25 14:11:20;;;;;;;21.17;11.03;;;2.20;99.90;;;;;;5046231;28;20981;-77
2023/01/25 14:17:13;;;;;;;20.20;9.40;;;2.20;99.90;;;;;;5070823;28;20446;-76
2023/01/25 14:19:56;;;;;;;15.63;7.80;;;2.20;99.90;;;;;;5073765;28;20440;-78
2023/01/25 14:22:29;;;;;;;23.53;7.70;;;2.00;99.90;;;;;;5072067;28;20490;-75
2023/01/25 14:25:31;;;;;;;20.33;9.40;;;2.00;99.90;;;;;;5086438;28;20466;-76
2023/01/25 14:28:43;;;;;;;19.77;10.10;;;2.00;99.90;;;;;;5072839;28;20812;-78
2023/01/25 14:31:28;;;;;;;20.60;9.53;;;1.80;99.90;;;;;;5073139;28;20453;-79
2023/01/25 14:34:03;;;;;;;29.60;11.57;;;1.70;99.90;;;;;;5071853;28;20424;-75
2023/01/25 14:36:45;;;;;;;16.43;6.67;;;1.70;99.90;;;;;;5073933;28;20432;-77
2023/01/25 14:39:32;;;;;;;22.00;10.57;;;1.70;99.90;;;;;;5077236;28;20465;-77
2023/01/25 14:45:21;;;;;;;14.63;7.53;;;1.70;99.90;;;;;;4997263;28;20486;-76
2023/01/25 14:48:05;;;;;;;27.90;10.30;;;1.70;99.90;;;;;;5072205;28;20485;-78
2023/01/25 14:51:24;;;;;;;16.23;9.60;;;1.80;99.90;;;;;;5031458;28;20492;-77
2023/01/25 14:54:22;;;;;;;18.13;9.80;;;1.80;99.90;;;;;;4957178;28;20450;-76
2023/01/25 14:57:00;;;;;;;20.07;9.53;;;1.80;99.90;;;;;;5046807;28;20429;-74
2023/01/25 14:59:43;;;;;;;16.57;10.33;;;1.90;99.90;;;;;;5048583;28;20566;-75
2023/01/25 15:02:30;;;;;;;;;;;;;;;;;;;;;
2023/01/25 15:05:00;;;;;;;19.20;8.97;;;1.90;99.90;;;;;;5034725;28;20552;-77
2023/01/25 15:08:16;;;;;;;23.57;13.57;;;1.70;99.90;;;;;;5034437;28;20857;-76
2023/01/25 15:11:33;;;;;;;24.53;7.57;;;1.70;99.90;;;;;;5071224;28;21713;-75
2023/01/25 15:14:11;;;;;;;21.57;9.60;;;1.60;99.90;;;;;;5076519;28;20560;-77
2023/01/25 15:16:41;;;;;;;19.83;9.37;;;1.70;99.90;;;;;;5072489;28;20496;-77
2023/01/25 15:29:29;;;;;;;23.10;11.33;;;1.80;99.90;;;;;;4938534;29;20438;-76
2023/01/25 15:32:20;;;;;;;15.90;9.33;;;1.70;99.90;;;;;;4933606;29;20951;-74
2023/01/25 15:35:17;;;;;;;23.73;11.50;;;1.60;99.90;;;;;;5012094;28;20457;-78
2023/01/25 15:38:05;;;;;;;23.43;11.10;;;1.60;99.90;;;;;;5014686;28;20454;-78
2023/01/25 15:44:45;;;;;;;14.13;8.40;;;1.70;99.90;;;;;;4942982;28;20475;-76
2023/01/25 15:47:21;;;;;;;12.67;7.50;;;1.70;99.90;;;;;;5010971;28;20494;-77
2023/01/25 15:50:21;;;;;;;18.40;8.70;;;1.80;99.90;;;;;;5011686;28;20551;-77
2023/01/25 15:55:57;;;;;;;17.53;9.20;;;1.70;99.90;;;;;;5007750;28;20438;-77
2023/01/25 15:59:13;;;;;;;16.27;8.70;;;1.80;99.90;;;;;;5013088;28;20447;-77
2023/01/25 16:08:32;;;;;;;16.63;8.40;;;1.70;99.90;;;;;;4936831;29;20478;-78
2023/01/25 16:11:25;;;;;;;9.23;7.17;;;1.50;99.90;;;;;;4931067;29;20515;-76
2023/01/25 16:13:51;;;;;;;24.20;12.77;;;1.50;99.90;;;;;;4825146;29;20440;-75
2023/01/25 16:17:02;;;;;;;11.17;7.87;;;1.40;99.90;;;;;;4919694;29;20507;-75
2023/01/25 16:19:56;;;;;;;23.30;13.00;;;1.50;99.90;;;;;;4880239;29;20460;-75
2023/01/25 16:22:23;;;;;;;24.37;11.77;;;1.50;99.90;;;;;;4891863;29;20478;-74
2023/01/25 16:24:51;;;;;;;20.20;9.90;;;1.50;99.90;;;;;;4884346;29;20591;-76
2023/01/25 16:30:48;;;;;;;29.53;10.50;;;1.50;99.90;;;;;;4851440;29;20482;-77
2023/01/25 16:33:21;;;;;;;19.47;10.87;;;1.60;99.90;;;;;;4934554;29;20465;-76
2023/01/25 16:36:40;;;;;;;16.80;7.53;;;1.60;99.90;;;;;;4928938;29;20548;-78
2023/01/25 16:39:53;;;;;;;;;;;;;;;;;;;;;
2023/01/25 16:42:30;;;;;;;34.10;15.80;;;1.40;99.90;;;;;;4993938;28;21778;-77
2023/01/25 16:44:57;;;;;;;28.30;10.80;;;1.40;99.90;;;;;;4989241;28;20502;-76
2023/01/25 16:47:25;;;;;;;19.77;11.50;;;1.50;99.90;;;;;;5019294;28;20451;-80
2023/01/25 16:49:56;;;;;;;33.50;12.30;;;1.60;99.90;;;;;;5024910;28;20463;-76
2023/01/25 16:52:24;;;;;;;16.57;11.63;;;1.40;99.90;;;;;;5028643;28;20537;-78
2023/01/25 16:54:51;;;;;;;23.03;10.57;;;1.40;99.90;;;;;;5033198;28;20478;-77
2023/01/25 16:57:18;;;;;;;18.97;10.50;;;1.50;99.90;;;;;;5028088;28;20483;-77
2023/01/25 16:59:45;;;;;;;33.70;14.77;;;1.60;99.90;;;;;;5030711;28;20982;-77
2023/01/25 17:02:13;;;;;;;25.83;11.37;;;1.60;99.90;;;;;;5031695;28;20477;-77
2023/01/25 17:04:40;;;;;;;23.30;16.27;;;1.70;99.90;;;;;;5027969;28;20526;-75
2023/01/25 17:07:13;;;;;;;30.07;15.67;;;1.70;99.90;;;;;;5053263;28;20432;-75
2023/01/25 17:09:41;;;;;;;34.30;14.60;;;1.80;99.90;;;;;;5048445;28;20462;-79
2023/01/25 17:12:12;;;;;;;25.87;13.17;;;1.90;99.90;;;;;;5030967;28;20459;-77
2023/01/25 17:14:52;;;;;;;30.07;12.70;;;1.90;99.90;;;;;;5064205;28;20451;-75
2023/01/25 17:17:31;;;;;;;19.33;11.60;;;1.90;99.90;;;;;;5069896;28;20440;-78
2023/01/25 17:20:00;;;;;;;26.20;11.13;;;2.00;99.90;;;;;;5058079;28;20476;-77
2023/01/25 17:22:32;;;;;;;29.53;12.03;;;1.90;99.90;;;;;;5067112;28;24988;-76
2023/01/25 17:25:00;;;;;;;15.70;8.50;;;1.70;99.90;;;;;;5068258;28;21383;-77
2023/01/25 17:27:34;;;;;;;17.37;10.73;;;1.60;99.90;;;;;;5070464;28;20883;-74
2023/01/25 17:30:09;;;;;;;22.93;11.23;;;1.60;99.90;;;;;;5063815;28;21240;-75
2023/01/25 17:32:45;;;;;;;21.10;10.17;;;1.60;99.90;;;;;;5051450;28;20569;-77
2023/01/25 17:35:12;;;;;;;25.67;15.33;;;1.50;99.90;;;;;;5067484;28;20466;-75
2023/01/25 17:37:40;;;;;;;31.90;15.67;;;1.60;99.90;;;;;;5058464;28;20463;-79
2023/01/25 17:40:18;;;;;;;28.10;11.67;;;1.60;99.90;;;;;;5066174;28;20461;-77
2023/01/25 17:42:48;;;;;;;33.03;11.87;;;1.70;99.90;;;;;;5068987;28;20464;-77
2023/01/25 17:45:18;;;;;;;30.90;15.27;;;1.70;99.90;;;;;;5070570;28;20554;-76
2023/01/25 17:47:49;;;;;;;34.87;14.43;;;1.60;99.90;;;;;;5067359;28;20462;-74
2023/01/25 17:50:17;;;;;;;17.10;9.67;;;1.50;99.90;;;;;;5046153;28;20457;-74
2023/01/25 17:52:47;;;;;;;26.60;12.27;;;1.30;99.90;;;;;;5069277;28;20457;-80
2023/01/25 17:55:20;;;;;;;19.40;8.70;;;1.20;99.90;;;;;;5077354;28;20414;-76
2023/01/25 17:57:56;;;;;;;34.40;16.00;;;1.20;99.90;;;;;;5071615;28;20465;-74
2023/01/25 18:03:06;;;;;;;35.30;14.03;;;1.10;99.90;;;;;;5074969;28;20433;-78
2023/01/25 18:05:38;;;;;;;24.73;11.07;;;1.20;99.90;;;;;;5042903;28;20481;-77
2023/01/25 18:08:06;;;;;;;29.60;11.73;;;1.30;99.90;;;;;;5051471;28;20457;-80
2023/01/25 18:10:45;;;;;;;34.97;15.80;;;1.30;99.90;;;;;;5052387;28;20538;-77
2023/01/25 18:13:13;;;;;;;26.30;10.37;;;1.20;99.90;;;;;;5062868;28;20513;-77
2023/01/25 18:15:45;;;;;;;27.93;16.17;;;1.30;99.90;;;;;;5070097;28;20493;-75
2023/01/25 18:18:14;;;;;;;20.73;11.87;;;1.30;99.90;;;;;;5075530;28;20708;-72
2023/01/25 18:20:55;;;;;;;23.97;10.03;;;1.40;99.90;;;;;;5038297;28;20487;-74
2023/01/25 18:26:27;;;;;;;24.57;12.50;;;1.20;99.90;;;;;;5059469;28;20514;-75
2023/01/25 18:29:20;;;;;;;39.47;12.73;;;1.20;99.90;;;;;;5063712;28;20471;-75
2023/01/25 18:34:48;;;;;;;40.60;15.00;;;1.20;99.90;;;;;;5072926;28;20470;-77
2023/01/25 18:37:42;;;;;;;41.63;16.30;;;1.30;99.90;;;;;;5068029;28;20856;-75
2023/01/25 18:40:27;;;;;;;29.33;15.00;;;1.30;99.90;;;;;;5073433;28;20453;-77
2023/01/25 18:43:15;;;;;;;36.90;16.07;;;1.40;99.90;;;;;;5063347;28;20465;-77
2023/01/25 18:46:11;;;;;;;14.17;8.27;;;1.50;99.90;;;;;;5066856;28;20529;-74
2023/01/25 18:48:45;;;;;;;36.00;13.87;;;1.50;99.90;;;;;;5067247;28;20478;-77
2023/01/25 18:51:28;;;;;;;17.47;8.17;;;1.50;99.90;;;;;;5073617;28;20462;-74
2023/01/25 18:53:57;;;;;;;20.20;9.97;;;1.50;99.90;;;;;;5002056;28;20485;-75
2023/01/25 18:56:36;;;;;;;52.77;15.30;;;1.50;99.90;;;;;;5079937;28;20453;-74
2023/01/25 19:02:13;;;;;;;28.40;11.67;;;1.30;99.90;;;;;;5066857;28;20452;-80
2023/01/25 19:05:02;;;;;;;27.77;12.57;;;1.30;99.90;;;;;;5038685;28;20589;-76
2023/01/25 19:07:40;;;;;;;28.60;12.77;;;1.40;99.90;;;;;;5068746;28;20517;-77
2023/01/25 19:10:15;;;;;;;15.33;8.70;;;1.40;99.90;;;;;;5063637;28;20490;-74
2023/01/25 19:12:44;;;;;;;28.10;11.03;;;1.20;99.90;;;;;;5066737;28;20489;-77
2023/01/25 19:15:17;;;;;;;40.13;17.27;;;1.10;99.90;;;;;;5072888;28;20482;-75
2023/01/25 19:18:10;;;;;;;45.47;16.33;;;1.10;99.90;;;;;;5074864;28;21019;-76
2023/01/25 19:20:41;;;;;;;21.77;13.03;;;1.00;99.90;;;;;;5072136;28;20592;-75
2023/01/25 19:23:21;;;;;;;28.90;12.77;;;1.10;99.90;;;;;;5077379;28;20493;-79
2023/01/25 19:26:04;;;;;;;39.10;13.77;;;1.20;99.90;;;;;;5074647;28;20525;-79
2023/01/25 19:28:37;;;;;;;25.47;12.10;;;1.20;99.90;;;;;;5071817;28;21168;-74
2023/01/25 19:31:10;;;;;;;25.60;10.10;;;1.30;99.90;;;;;;5068385;28;20478;-77
2023/01/25 19:33:40;;;;;;;29.80;14.33;;;1.30;99.90;;;;;;5073564;28;20457;-77
2023/01/25 19:36:19;;;;;;;14.43;5.33;;;1.30;99.90;;;;;;5073152;28;20485;-75
2023/01/25 19:38:52;;;;;;;35.23;14.90;;;1.30;99.90;;;;;;5076611;28;20548;-74
2023/01/25 19:41:25;;;;;;;23.30;11.97;;;1.50;99.90;;;;;;5074906;28;20510;-77
2023/01/25 19:44:07;;;;;;;34.80;13.27;;;1.40;99.90;;;;;;5073939;28;20461;-75
2023/01/25 19:46:36;;;;;;;32.20;13.30;;;1.40;99.90;;;;;;5069647;28;20493;-75
2023/01/25 19:49:08;;;;;;;48.77;15.47;;;1.40;99.90;;;;;;5051237;28;20468;-76
2023/01/25 19:51:36;;;;;;;19.23;10.37;;;1.50;99.90;;;;;;5070989;28;20471;-75
2023/01/25 19:54:29;;;;;;;27.23;13.37;;;1.30;99.90;;;;;;5066065;28;20479;-76
2023/01/25 19:56:59;;;;;;;36.17;17.10;;;1.40;99.90;;;;;;5037396;28;20826;-74
2023/01/25 19:59:30;;;;;;;40.47;17.23;;;1.20;99.90;;;;;;5055025;28;20481;-74
2023/01/25 20:02:09;;;;;;;20.40;11.33;;;1.20;99.90;;;;;;5064599;28;20483;-76
2023/01/25 20:04:40;;;;;;;26.73;14.33;;;1.20;99.90;;;;;;5074515;28;20488;-77
2023/01/25 20:07:10;;;;;;;40.10;15.90;;;1.30;99.90;;;;;;5002517;28;20674;-78
2023/01/25 20:09:39;;;;;;;35.73;12.93;;;1.40;99.90;;;;;;5058743;28;20720;-78
2023/01/25 20:12:13;;;;;;;20.07;12.70;;;1.30;99.90;;;;;;5065845;28;20704;-75
2023/01/25 20:14:46;;;;;;;32.03;12.57;;;1.40;99.90;;;;;;5043454;28;20590;-78
2023/01/25 20:17:23;;;;;;;30.40;14.27;;;1.50;99.90;;;;;;5064258;28;20470;-75
2023/01/25 20:19:54;;;;;;;26.90;12.33;;;1.40;99.90;;;;;;5035360;28;20478;-76
2023/01/25 20:22:24;;;;;;;28.73;14.47;;;1.40;99.90;;;;;;5064210;28;20959;-78
2023/01/25 20:25:17;;;;;;;;;;;;;;;;;;;;;
2023/01/25 20:27:52;;;;;;;29.60;14.30;;;1.50;99.90;;;;;;5058651;28;20484;-76
2023/01/25 20:30:49;;;;;;;40.50;15.03;;;1.30;99.90;;;;;;5063900;28;20490;-77
2023/01/25 20:33:34;;;;;;;23.37;14.17;;;1.30;99.90;;;;;;5064263;28;20461;-78
2023/01/25 20:36:02;;;;;;;19.97;11.83;;;1.10;99.90;;;;;;5061907;28;20519;-78
2023/01/25 20:38:36;;;;;;;26.43;13.10;;;0.90;99.90;;;;;;5061542;28;20504;-75
2023/01/25 20:41:22;;;;;;;29.50;13.77;;;1.00;99.90;;;;;;5075312;28;20477;-74
2023/01/25 20:44:05;;;;;;;22.27;10.10;;;1.00;99.90;;;;;;5078976;28;20844;-74
2023/01/25 20:46:50;;;;;;;31.67;15.63;;;1.20;99.90;;;;;;5077230;28;20489;-77
2023/01/25 20:49:48;;;;;;;34.97;12.27;;;1.40;99.90;;;;;;5012589;28;21311;-74
2023/01/25 20:52:29;;;;;;;23.30;12.63;;;1.20;99.90;;;;;;5054156;28;20483;-77
2023/01/25 20:54:56;;;;;;;24.73;12.83;;;1.20;99.90;;;;;;5065122;28;21076;-78
2023/01/25 20:57:38;;;;;;;33.00;13.47;;;1.20;99.90;;;;;;5074018;28;20527;-75
2023/01/25 21:00:15;;;;;;;31.53;13.80;;;1.20;99.90;;;;;;5040531;28;20445;-79
2023/01/25 21:02:43;;;;;;;40.47;16.23;;;1.30;99.90;;;;;;5054437;28;20475;-77
2023/01/25 21:05:10;;;;;;;31.93;10.77;;;1.40;99.90;;;;;;5077551;28;20883;-76
2023/01/25 21:07:41;;;;;;;26.50;13.80;;;1.30;99.90;;;;;;5054382;28;20501;-74
2023/01/25 21:10:09;;;;;;;32.07;15.37;;;1.40;99.90;;;;;;5072653;28;20488;-74
2023/01/25 21:12:38;;;;;;;14.50;7.43;;;1.40;99.90;;;;;;5074275;28;20457;-74
2023/01/25 21:15:09;;;;;;;24.57;10.80;;;1.20;99.90;;;;;;4984532;28;20458;-73
2023/01/25 21:17:55;;;;;;;20.30;10.60;;;1.20;99.90;;;;;;5051052;28;20536;-75
2023/01/25 21:20:34;;;;;;;27.17;13.33;;;1.30;99.90;;;;;;4982980;28;20584;-77
2023/01/25 21:23:23;;;;;;;24.50;10.60;;;1.20;99.90;;;;;;5061708;28;21174;-75
2023/01/25 21:25:53;;;;;;;17.87;10.00;;;1.10;99.90;;;;;;5064416;28;20517;-75
2023/01/25 21:28:28;;;;;;;21.93;10.00;;;1.10;99.90;;;;;;5066570;28;21471;-78
2023/01/25 21:30:58;;;;;;;16.63;9.40;;;1.10;99.90;;;;;;5070533;28;20480;-77
2023/01/25 21:33:26;;;;;;;34.83;14.07;;;1.10;99.90;;;;;;5051045;28;21277;-78
2023/01/25 21:35:54;;;;;;;29.23;12.80;;;1.10;99.90;;;;;;5066785;28;20418;-76
2023/01/25 21:38:24;;;;;;;29.23;11.57;;;1.20;99.90;;;;;;5067485;28;20451;-81
2023/01/25 21:40:51;;;;;;;32.90;14.50;;;1.30;99.90;;;;;;5063819;28;20629;-77
2023/01/25 21:43:18;;;;;;;27.13;12.17;;;1.10;99.90;;;;;;5067568;28;20464;-78
2023/01/25 21:46:24;;;;;;;32.70;13.20;;;1.10;99.90;;;;;;5065889;28;20896;-76
2023/01/25 21:52:17;;;;;;;18.03;10.53;;;1.00;99.90;;;;;;5073693;28;20582;-77
2023/01/25 21:55:01;;;;;;;19.73;9.87;;;1.00;99.90;;;;;;5056891;28;20440;-76
2023/01/25 21:57:34;;;;;;;20.27;11.07;;;1.10;99.90;;;;;;5069551;28;20572;-73
2023/01/25 22:00:07;;;;;;;32.43;14.43;;;1.10;99.90;;;;;;5073613;28;20518;-74
2023/01/25 22:02:34;;;;;;;42.10;14.60;;;1.00;99.90;;;;;;5074407;28;20494;-77
2023/01/25 22:05:15;;;;;;;30.47;10.20;;;0.80;99.90;;;;;;5070027;28;20437;-75
2023/01/25 22:07:44;;;;;;;30.27;13.40;;;0.90;99.90;;;;;;5076545;28;20443;-77
2023/01/25 22:10:47;;;;;;;47.73;16.10;;;0.90;99.90;;;;;;5064749;28;20480;-78
2023/01/25 22:16:21;;;;;;;21.07;10.10;;;0.80;99.90;;;;;;5019663;28;20459;-75
2023/01/25 22:32:04;;;;;;;26.40;11.57;;;0.80;99.90;;;;;;4992088;28;20470;-76
2023/01/25 22:34:36;;;;;;;34.43;17.10;;;0.70;99.90;;;;;;5022379;28;20557;-75
2023/01/25 22:37:07;;;;;;;24.93;10.93;;;0.70;99.90;;;;;;5055814;28;20447;-80
2023/01/25 22:39:43;;;;;;;29.87;17.10;;;0.70;99.90;;;;;;5064397;28;20436;-75
2023/01/25 22:45:08;;;;;;;27.87;14.13;;;0.80;99.90;;;;;;5042963;28;20467;-75
2023/01/25 22:47:54;;;;;;;26.07;13.30;;;0.80;99.90;;;;;;5068419;28;20447;-76
2023/01/25 22:50:40;;;;;;;46.37;15.53;;;0.80;99.90;;;;;;5070079;28;20475;-74
2023/01/25 22:53:36;;;;;;;33.27;10.87;;;0.80;99.90;;;;;;5071456;28;20458;-74
2023/01/25 22:56:20;;;;;;;26.00;14.30;;;0.80;99.90;;;;;;5080463;28;20491;-74
2023/01/25 22:58:51;;;;;;;21.90;9.90;;;0.70;99.90;;;;;;5084210;28;20406;-75
2023/01/25 23:01:23;;;;;;;19.77;11.37;;;0.60;99.90;;;;;;5080921;28;20474;-73
2023/01/25 23:03:59;;;;;;;29.73;16.17;;;0.60;99.90;;;;;;5079305;28;20433;-73
2023/01/25 23:06:35;;;;;;;17.87;8.47;;;0.60;99.90;;;;;;5078158;28;20501;-77
2023/01/25 23:09:31;;;;;;;27.83;10.73;;;0.60;99.90;;;;;;5073173;28;20440;-77
2023/01/25 23:12:01;;;;;;;30.40;16.83;;;0.60;99.90;;;;;;5066513;28;20458;-74
2023/01/25 23:15:01;;;;;;;37.33;14.13;;;0.70;99.90;;;;;;5067155;28;20560;-79
2023/01/25 23:20:16;;;;;;;25.97;13.70;;;0.80;99.90;;;;;;5073361;28;20452;-77
2023/01/25 23:23:02;;;;;;;21.90;10.77;;;0.80;99.90;;;;;;5071949;28;20521;-75
2023/01/25 23:25:32;;;;;;;32.27;12.93;;;0.70;99.90;;;;;;5070477;28;20457;-77
2023/01/25 23:28:20;;;;;;;;;;;;;;;;;;;;;
2023/01/25 23:31:10;;;;;;;29.30;11.07;;;0.80;99.90;;;;;;5068977;28;20527;-74
2023/01/25 23:33:58;;;;;;;45.60;12.00;;;0.90;99.90;;;;;;5073926;28;20620;-74
2023/01/25 23:36:33;;;;;;;48.03;16.07;;;0.90;99.90;;;;;;5071236;28;20429;-77
2023/01/25 23:39:13;;;;;;;23.33;9.83;;;0.90;99.90;;;;;;5072891;28;20523;-76
2023/01/25 23:41:51;;;;;;;28.70;11.77;;;0.90;99.90;;;;;;5037063;28;20513;-74
2023/01/25 23:44:18;;;;;;;24.20;13.83;;;0.80;99.90;;;;;;5063507;28;20467;-74
2023/01/25 23:46:54;;;;;;;26.07;12.77;;;0.60;99.90;;;;;;5069537;28;20464;-74
2023/01/25 23:49:21;;;;;;;28.10;13.73;;;0.60;99.90;;;;;;5069172;28;20433;-76
2023/01/25 23:54:41;;;;;;;24.90;12.83;;;0.50;99.90;;;;;;5067436;28;20505;-75
2023/01/25 23:57:20;;;;;;;23.80;8.33;;;0.70;99.90;;;;;;5069895;28;20965;-77
2023/01/25 23:59:58;;;;;;;24.70;11.70;;;0.50;99.90;;;;;;5069298;28;20451;-76
